createdAt,value
2022-10-14T00:09:49.475Z,18.50
2022-10-14T00:24:54.087Z,18.50
2022-10-14T00:39:58.465Z,18.50
2022-10-14T00:55:08.978Z,18.50
2022-10-14T01:10:19.372Z,18.50
2022-10-14T01:25:30.580Z,18.50
2022-10-14T01:40:41.515Z,18.60
2022-10-14T01:55:48.217Z,18.60
2022-10-14T02:11:08.141Z,18.30
2022-10-14T02:26:13.588Z,18.20
2022-10-14T02:41:20.693Z,18.00
2022-10-14T02:56:25.229Z,17.90
2022-10-14T03:11:29.640Z,18.00
2022-10-14T03:26:40.710Z,18.00
2022-10-14T03:41:45.296Z,17.80
2022-10-14T03:56:53.059Z,17.60
2022-10-14T04:12:00.050Z,17.70
2022-10-14T04:27:22.312Z,17.50
2022-10-14T04:42:37.228Z,17.70
2022-10-14T04:57:45.843Z,17.50
2022-10-14T05:12:52.400Z,18.00
2022-10-14T05:27:57.033Z,17.70
2022-10-14T05:43:02.620Z,17.80
2022-10-14T05:58:07.839Z,17.50
2022-10-14T06:13:16.865Z,17.40
2022-10-14T06:28:24.463Z,17.60
2022-10-14T06:43:28.822Z,17.70
2022-10-14T06:58:34.427Z,17.80
2022-10-14T07:13:40.002Z,17.80
2022-10-14T07:28:44.632Z,17.80
2022-10-14T07:43:51.632Z,17.50
2022-10-14T07:58:57.032Z,17.20
2022-10-14T08:14:02.094Z,17.80
2022-10-14T08:29:08.694Z,17.60
2022-10-14T08:44:19.335Z,17.60
2022-10-14T08:59:25.129Z,17.70
2022-10-14T09:14:35.317Z,17.60
2022-10-14T09:29:47.249Z,17.70
2022-10-14T09:45:08.881Z,17.60
2022-10-14T10:00:28.409Z,17.70
2022-10-14T10:15:33.096Z,18.00
2022-10-14T10:30:43.456Z,18.00
2022-10-14T10:46:01.324Z,18.10
2022-10-14T11:01:18.406Z,18.30
2022-10-14T11:16:33.366Z,18.40
2022-10-14T11:31:45.995Z,18.40
2022-10-14T11:46:56.473Z,18.10
2022-10-14T12:02:09.318Z,18.60
2022-10-14T12:17:20.763Z,18.40
2022-10-14T12:32:27.320Z,18.50
2022-10-14T12:47:35.176Z,18.60
2022-10-14T13:02:45.720Z,18.70
2022-10-14T13:17:50.423Z,18.60
2022-10-14T13:32:59.971Z,18.70
2022-10-14T13:48:04.754Z,18.70
2022-10-14T14:03:17.799Z,18.70
2022-10-14T14:18:49.261Z,18.60
2022-10-14T14:34:01.929Z,18.60
2022-10-14T14:49:08.544Z,18.70
2022-10-14T15:04:20.081Z,18.70
2022-10-14T15:19:37.281Z,18.70
2022-10-14T15:34:43.041Z,18.90
2022-10-14T15:49:47.892Z,19.00
2022-10-14T16:05:18.827Z,19.10
2022-10-14T16:20:19.507Z,19.10
2022-10-14T16:35:24.072Z,19.10
2022-10-14T16:50:28.626Z,19.10
2022-10-14T17:05:33.162Z,19.10
2022-10-14T17:20:38.315Z,19.10
2022-10-14T17:35:42.988Z,19.10
2022-10-14T17:50:49.507Z,19.10
2022-10-14T18:05:54.233Z,19.00
2022-10-14T18:21:00.618Z,19.00
2022-10-14T18:36:06.588Z,19.00
2022-10-14T18:51:12.447Z,18.80
2022-10-14T19:06:16.878Z,18.70
2022-10-14T19:21:22.801Z,18.50
2022-10-14T19:36:27.860Z,18.30
2022-10-14T19:51:33.188Z,18.30
2022-10-14T20:06:39.910Z,18.10
2022-10-14T20:21:44.428Z,18.10
2022-10-14T20:36:48.829Z,18.00
2022-10-14T20:51:53.315Z,17.90
2022-10-14T21:06:57.673Z,17.70
2022-10-14T21:22:02.675Z,18.00
2022-10-14T21:37:07.104Z,17.90
2022-10-14T21:52:11.418Z,18.10
2022-10-14T22:07:15.796Z,18.20
2022-10-14T22:22:20.143Z,18.00
2022-10-14T22:37:25.115Z,17.90
2022-10-14T22:52:29.829Z,17.90
2022-10-14T23:07:34.153Z,17.90
2022-10-14T23:22:38.537Z,18.00
2022-10-14T23:37:42.884Z,18.30
2022-10-14T23:52:47.236Z,18.10
